Carpenter, South Dakota
Current Conditions -  °F | °C
As of 1:55 AM on Friday 31 Oct 2014 (Local Time) from KHON Reporting Station
Clear Clear  
Wind Chill:   Ceiling: Unl
Heat Index: 17°   Visibility: NA
Dew Point: 14°   Wind: 9mph
Humidity: 88%   Direction: 320°NW
Pressure: 30.57"   Gusts: NA
Location:  44.64°N, 97.92°W
Report Text: KHON 310655Z AUTO 32008KT CLR M08/M10 A3057 RMK AO2 SLP370 T10831100 $
Loading
Personal Weather Stations






























Interactive Weather Map
Tropical Storm Tracking
New forecast layout! Learn more

10-Day Weather Forecast

Advertisements
Track Severe Weather on mobile